This is the latest recevied weather packets stored in our database for station/object HP3ICC-23. If no packets are shown the sender has not sent any weather packets the latest 10 day(s).
| Time | Temp. | Humidity | Pressure | Rain* | Wind** | Luminosity | Snow |
|---|---|---|---|---|---|---|---|
| 1778112286 | 17.78° C | 81% | 1012 hPa | 0 mm | - | - | - |
| 1778112226 | 17.78° C | 81% | 1012 hPa | 0 mm | - | - | - |
| 1778111086 | 18.33° C | 84% | 1012 hPa | 0 mm | - | - | - |
| 1778111025 | 18.33° C | 84% | 1012 hPa | 0 mm | - | - | - |
| 1778109885 | 16.67° C | 77% | 1012 hPa | 0 mm | - | - | - |
| 1778109825 | 16.67° C | 77% | 1012 hPa | 0 mm | - | - | - |
| 1778108684 | 17.22° C | 77% | 1012 hPa | 0 mm | - | - | - |
| 1778108624 | 17.22° C | 77% | 1012 hPa | 0 mm | - | - | - |
| 1778107484 | 17.78° C | 77% | 1012 hPa | 0 mm | - | - | - |
| 1778107424 | 17.78° C | 77% | 1012 hPa | 0 mm | - | - | - |
| 1778106284 | 18.33° C | 77% | 1011 hPa | 0.25 mm | - | - | - |
| 1778106223 | 18.33° C | 77% | 1011 hPa | 0.25 mm | - | - | - |
| 1778105083 | 18.89° C | 77% | 1011 hPa | 0 mm | - | - | - |
| 1778105023 | 18.89° C | 77% | 1011 hPa | 0 mm | - | - | - |
| 1778103882 | 19.44° C | 78% | 1011 hPa | 0.25 mm | - | - | - |
| 1778103822 | 19.44° C | 78% | 1011 hPa | 0.25 mm | - | - | - |
| 1778102682 | 19.44° C | 74% | 1011 hPa | 0 mm | - | - | - |
| 1778102621 | 19.44° C | 74% | 1011 hPa | 0 mm | - | - | - |
| 1778101481 | 19.44° C | 75% | 1011 hPa | 0 mm | - | - | - |
| 1778101421 | 19.44° C | 75% | 1011 hPa | 0 mm | - | - | - |
| 1778100281 | 19.44° C | 76% | 1011 hPa | 0 mm | - | - | - |
| 1778100221 | 19.44° C | 76% | 1011 hPa | 0 mm | - | - | - |
| 1778099080 | 19.44° C | 75% | 1012 hPa | 0 mm | - | - | - |
| 1778099020 | 19.44° C | 75% | 1012 hPa | 0 mm | - | - | - |
| 1778097879 | 20° C | 75% | 1012 hPa | 0.25 mm | - | - | - |
* Rain latest hour (hover to see other rain measurements)
** Current wind speed in m/s (hover to see current wind gust speed)